Time;durP1;ratioP1;P1;durP2;ratioP2;P2;SDS_P1;SDS_P2;PMS_P1;PMS_P2;Temp;Humidity;BMP_temperature;BMP_pressure;BME280_temperature;BME280_humidity;BME280_pressure;Samples;Min_cycle;Max_cycle;Signal;HPM_P1;HPM_P2
2023/12/04 00:00:20;;;;;;;2.13;1.77;;;;;;;;;;4960565;28;87397;-73
2023/12/04 00:02:48;;;;;;;2.33;1.77;;;;;;;;;;4960045;28;89664;-73
2023/12/04 00:05:17;;;;;;;2.77;2.13;;;;;;;;;;4961222;28;89092;-73
2023/12/04 00:07:46;;;;;;;2.87;2.33;;;;;;;;;;4962480;28;88994;-73
2023/12/04 00:10:15;;;;;;;3.30;2.40;;;;;;;;;;4962518;28;87926;-73
2023/12/04 00:12:43;;;;;;;4.00;1.67;;;;;;;;;;4963171;28;89625;-73
2023/12/04 00:15:12;;;;;;;5.03;1.93;;;;;;;;;;4962461;28;89599;-73
2023/12/04 00:17:42;;;;;;;3.67;2.40;;;;;;;;;;4963289;28;88794;-74
2023/12/04 00:20:10;;;;;;;4.17;2.50;;;;;;;;;;4960974;28;87607;-73
2023/12/04 00:22:39;;;;;;;4.13;2.17;;;;;;;;;;4961484;28;89637;-73
2023/12/04 00:25:08;;;;;;;2.73;2.00;;;;;;;;;;4968548;28;89118;-73
2023/12/04 00:27:37;;;;;;;2.90;2.13;;;;;;;;;;4967159;28;88860;-73
2023/12/04 00:30:06;;;;;;;3.57;2.17;;;;;;;;;;4960238;28;87694;-73
2023/12/04 00:32:35;;;;;;;2.37;1.97;;;;;;;;;;4956835;28;89694;-73
2023/12/04 00:35:06;;;;;;;2.07;1.53;;;;;;;;;;4960292;28;90145;-71
2023/12/04 00:37:37;;;;;;;2.33;1.97;;;;;;;;;;4959638;28;89744;-73
2023/12/04 00:40:07;;;;;;;2.07;1.57;;;;;;;;;;4956542;28;89110;-73
2023/12/04 00:42:35;;;;;;;2.77;2.00;;;;;;;;;;4952346;28;90612;-73
2023/12/04 00:45:04;;;;;;;3.43;2.00;;;;;;;;;;4962342;28;89289;-76
2023/12/04 00:47:34;;;;;;;2.93;1.70;;;;;;;;;;4960893;28;88789;-72
2023/12/04 00:50:02;;;;;;;3.27;2.10;;;;;;;;;;4962288;28;87554;-72
2023/12/04 00:52:32;;;;;;;2.67;2.13;;;;;;;;;;4962414;28;89614;-72
2023/12/04 00:55:02;;;;;;;2.63;2.13;;;;;;;;;;4979821;28;89336;-72
2023/12/04 00:57:30;;;;;;;3.33;2.50;;;;;;;;;;4975432;28;89051;-72
2023/12/04 00:59:59;;;;;;;2.70;2.37;;;;;;;;;;4963473;28;87991;-72
2023/12/04 01:02:27;;;;;;;2.73;2.00;;;;;;;;;;4964253;28;89624;-72
2023/12/04 01:04:56;;;;;;;3.60;1.93;;;;;;;;;;4964664;28;90379;-72
2023/12/04 01:07:25;;;;;;;2.93;2.20;;;;;;;;;;4966203;28;88938;-73
2023/12/04 01:09:55;;;;;;;4.40;2.83;;;;;;;;;;4968634;28;87585;-73
2023/12/04 01:12:23;;;;;;;4.23;2.30;;;;;;;;;;4966749;28;89825;-73
2023/12/04 01:14:52;;;;;;;5.47;2.43;;;;;;;;;;4964370;28;89212;-73
2023/12/04 01:17:21;;;;;;;2.60;2.40;;;;;;;;;;4953801;28;88994;-73
2023/12/04 01:19:49;;;;;;;5.47;2.93;;;;;;;;;;4960424;28;87722;-73
2023/12/04 01:22:18;;;;;;;4.40;2.90;;;;;;;;;;4967248;28;89632;-73
2023/12/04 01:24:47;;;;;;;4.90;3.40;;;;;;;;;;4961809;28;88636;-72
2023/12/04 01:27:17;;;;;;;4.43;3.67;;;;;;;;;;4962889;28;89798;-73
2023/12/04 01:29:45;;;;;;;5.23;3.50;;;;;;;;;;4959881;28;87665;-73
2023/12/04 01:32:14;;;;;;;3.23;2.60;;;;;;;;;;4979828;28;88624;-72
2023/12/04 01:34:42;;;;;;;4.53;3.20;;;;;;;;;;4981137;28;89376;-73
2023/12/04 01:37:11;;;;;;;4.80;3.43;;;;;;;;;;4980474;28;88904;-73
2023/12/04 01:39:40;;;;;;;4.80;3.10;;;;;;;;;;4977353;28;87766;-73
2023/12/04 01:42:08;;;;;;;4.27;2.93;;;;;;;;;;4982265;28;89780;-73
2023/12/04 01:44:38;;;;;;;5.53;2.47;;;;;;;;;;4984248;28;89046;-73
2023/12/04 01:47:09;;;;;;;3.63;2.80;;;;;;;;;;4987250;28;88877;-74
2023/12/04 01:49:37;;;;;;;6.43;3.63;;;;;;;;;;4982733;28;87779;-74
2023/12/04 01:52:06;;;;;;;3.30;2.57;;;;;;;;;;4984171;28;89513;-74
2023/12/04 01:54:34;;;;;;;5.43;2.90;;;;;;;;;;4983743;28;89103;-74
2023/12/04 01:57:03;;;;;;;4.47;3.03;;;;;;;;;;4987683;28;88139;-74
2023/12/04 01:59:31;;;;;;;5.00;3.03;;;;;;;;;;4982595;28;87658;-74
2023/12/04 02:02:01;;;;;;;8.20;2.97;;;;;;;;;;4982373;28;89640;-74
2023/12/04 02:04:30;;;;;;;9.57;3.20;;;;;;;;;;4982110;28;88912;-73
2023/12/04 02:06:59;;;;;;;3.37;3.00;;;;;;;;;;4982215;28;89028;-71
2023/12/04 02:09:27;;;;;;;4.20;2.67;;;;;;;;;;4993445;28;87644;-71
2023/12/04 02:11:57;;;;;;;6.53;2.67;;;;;;;;;;5000968;28;89702;-71
2023/12/04 02:14:26;;;;;;;4.67;2.90;;;;;;;;;;4997135;28;90066;-71
2023/12/04 02:16:55;;;;;;;4.30;2.67;;;;;;;;;;4998703;28;89768;-71
2023/12/04 02:19:26;;;;;;;2.70;2.40;;;;;;;;;;4996021;28;87656;-71
2023/12/04 02:21:55;;;;;;;3.73;2.50;;;;;;;;;;4982860;28;89278;-71
2023/12/04 02:24:25;;;;;;;5.30;2.87;;;;;;;;;;4982967;28;89197;-71
2023/12/04 02:26:54;;;;;;;3.63;2.57;;;;;;;;;;4988850;28;88997;-71
2023/12/04 02:29:23;;;;;;;2.77;2.07;;;;;;;;;;4999190;28;87624;-70
2023/12/04 02:31:52;;;;;;;2.73;2.40;;;;;;;;;;4991935;28;89765;-71
2023/12/04 02:34:21;;;;;;;3.00;2.43;;;;;;;;;;4982772;28;88935;-71
2023/12/04 02:36:49;;;;;;;2.43;2.00;;;;;;;;;;4983640;28;89011;-71
2023/12/04 02:39:18;;;;;;;3.43;2.63;;;;;;;;;;4982972;28;88510;-71
2023/12/04 02:41:48;;;;;;;5.17;2.27;;;;;;;;;;4985588;28;89629;-72
2023/12/04 02:44:16;;;;;;;5.33;2.67;;;;;;;;;;4983746;28;89276;-72
2023/12/04 02:46:45;;;;;;;3.67;2.17;;;;;;;;;;4986804;28;88731;-72
2023/12/04 02:49:13;;;;;;;5.53;2.60;;;;;;;;;;4982863;28;87796;-72
2023/12/04 02:51:42;;;;;;;3.17;2.20;;;;;;;;;;4992696;28;91527;-72
2023/12/04 02:54:11;;;;;;;2.50;1.80;;;;;;;;;;4990960;28;94165;-71
2023/12/04 02:56:39;;;;;;;2.37;1.70;;;;;;;;;;4974336;28;93668;-70
2023/12/04 02:59:09;;;;;;;4.23;2.67;;;;;;;;;;4971357;28;92045;-71
2023/12/04 03:01:37;;;;;;;3.57;2.53;;;;;;;;;;4987050;28;92143;-70
2023/12/04 03:04:06;;;;;;;2.53;2.00;;;;;;;;;;5006176;28;94063;-70
2023/12/04 03:06:35;;;;;;;2.43;2.17;;;;;;;;;;5001119;28;93718;-71
2023/12/04 03:09:04;;;;;;;3.10;2.67;;;;;;;;;;5005477;28;91233;-70
2023/12/04 03:11:33;;;;;;;2.77;2.17;;;;;;;;;;5004070;28;91151;-70
2023/12/04 03:14:02;;;;;;;4.13;2.33;;;;;;;;;;5004120;28;93056;-71
2023/12/04 03:16:31;;;;;;;2.90;2.40;;;;;;;;;;4996979;28;92704;-71
2023/12/04 03:19:01;;;;;;;3.40;1.97;;;;;;;;;;4974007;28;92174;-71
2023/12/04 03:21:29;;;;;;;5.00;3.00;;;;;;;;;;4981201;28;91419;-71
2023/12/04 03:23:58;;;;;;;6.27;2.63;;;;;;;;;;4981861;28;94131;-71
2023/12/04 03:26:28;;;;;;;4.37;2.57;;;;;;;;;;4978627;28;93885;-75
2023/12/04 03:28:56;;;;;;;4.00;2.93;;;;;;;;;;4979885;28;94028;-73
2023/12/04 03:31:25;;;;;;;5.97;2.80;;;;;;;;;;4979379;28;93344;-74
2023/12/04 03:33:55;;;;;;;3.70;2.57;;;;;;;;;;4975866;28;94092;-75
2023/12/04 03:36:24;;;;;;;4.00;2.37;;;;;;;;;;4983851;28;93938;-75
2023/12/04 03:38:53;;;;;;;4.97;2.90;;;;;;;;;;4975112;28;92774;-74
2023/12/04 03:41:22;;;;;;;5.60;3.00;;;;;;;;;;4977228;28;92138;-75
2023/12/04 03:43:50;;;;;;;4.30;2.50;;;;;;;;;;4976679;28;94543;-75
2023/12/04 03:46:19;;;;;;;3.27;2.53;;;;;;;;;;4976728;28;93927;-75
2023/12/04 03:48:50;;;;;;;4.33;2.93;;;;;;;;;;4978026;28;92143;-74
2023/12/04 03:51:20;;;;;;;4.53;2.57;;;;;;;;;;4979282;28;92590;-74
2023/12/04 03:53:48;;;;;;;4.00;3.07;;;;;;;;;;4977351;28;95073;-74
2023/12/04 03:56:17;;;;;;;3.23;2.30;;;;;;;;;;4976385;28;94859;-74
2023/12/04 03:58:45;;;;;;;3.87;2.80;;;;;;;;;;4982000;28;92098;-74
2023/12/04 04:01:14;;;;;;;3.70;2.67;;;;;;;;;;4972131;28;92057;-73
2023/12/04 04:03:42;;;;;;;4.00;2.77;;;;;;;;;;4976168;28;95923;-72
2023/12/04 04:06:13;;;;;;;4.20;2.57;;;;;;;;;;4973436;28;93976;-72
2023/12/04 04:08:43;;;;;;;3.70;2.83;;;;;;;;;;4976001;28;92094;-72
2023/12/04 04:11:12;;;;;;;2.27;2.07;;;;;;;;;;4971800;28;91336;-72
2023/12/04 04:13:41;;;;;;;3.17;2.60;;;;;;;;;;4965634;28;94059;-72
2023/12/04 04:16:10;;;;;;;3.43;2.77;;;;;;;;;;4964992;28;92478;-72
2023/12/04 04:18:38;;;;;;;3.73;2.57;;;;;;;;;;4976093;28;93253;-72
2023/12/04 04:21:07;;;;;;;4.80;3.03;;;;;;;;;;4975831;28;92106;-74
2023/12/04 04:23:36;;;;;;;5.23;3.13;;;;;;;;;;4973821;28;94163;-74
2023/12/04 04:26:06;;;;;;;4.10;2.83;;;;;;;;;;4975735;28;93825;-74
2023/12/04 04:28:34;;;;;;;4.10;2.93;;;;;;;;;;4970703;28;92564;-74
2023/12/04 04:31:03;;;;;;;6.07;3.20;;;;;;;;;;4977772;28;92111;-74
2023/12/04 04:33:32;;;;;;;6.60;3.17;;;;;;;;;;4977877;28;94229;-74
2023/12/04 04:36:00;;;;;;;3.87;3.00;;;;;;;;;;4980486;28;93785;-74
2023/12/04 04:38:29;;;;;;;4.27;2.90;;;;;;;;;;4987861;28;92210;-74
2023/12/04 04:40:57;;;;;;;4.33;2.87;;;;;;;;;;4984211;28;92570;-73
2023/12/04 04:43:28;;;;;;;3.93;2.87;;;;;;;;;;4969352;28;95018;-72
2023/12/04 04:45:56;;;;;;;3.60;2.73;;;;;;;;;;4976756;28;96148;-72
2023/12/04 04:48:26;;;;;;;3.03;1.83;;;;;;;;;;4975103;28;92212;-73
2023/12/04 04:50:55;;;;;;;3.33;2.13;;;;;;;;;;4979412;28;92904;-73
2023/12/04 04:53:23;;;;;;;3.10;2.63;;;;;;;;;;4985986;28;94434;-73
2023/12/04 04:55:51;;;;;;;4.43;2.97;;;;;;;;;;4985442;28;93773;-73
2023/12/04 04:58:20;;;;;;;3.63;2.90;;;;;;;;;;4981012;28;92257;-74
2023/12/04 05:00:51;;;;;;;3.77;2.93;;;;;;;;;;4986117;28;91431;-70
2023/12/04 05:03:20;;;;;;;6.00;3.33;;;;;;;;;;4978275;28;94249;-74
2023/12/04 05:05:50;;;;;;;5.23;3.27;;;;;;;;;;4981469;28;93669;-74
2023/12/04 05:08:19;;;;;;;3.87;3.30;;;;;;;;;;4981686;28;93078;-72
2023/12/04 05:10:47;;;;;;;6.10;3.53;;;;;;;;;;4980947;28;92670;-73
2023/12/04 05:13:16;;;;;;;4.87;2.57;;;;;;;;;;4984020;28;94304;-73
2023/12/04 05:15:44;;;;;;;8.37;3.40;;;;;;;;;;4969932;28;93898;-73
2023/12/04 05:18:14;;;;;;;4.27;2.90;;;;;;;;;;4974905;28;92285;-73
2023/12/04 05:20:42;;;;;;;3.80;3.10;;;;;;;;;;4974145;28;93665;-73
2023/12/04 05:23:11;;;;;;;4.23;3.10;;;;;;;;;;4979738;28;94161;-73
2023/12/04 05:25:39;;;;;;;3.80;2.90;;;;;;;;;;4985736;28;93777;-73
2023/12/04 05:28:15;;;;;;;4.77;3.53;;;;;;;;;;4983597;28;92122;-73
2023/12/04 05:30:44;;;;;;;5.13;3.30;;;;;;;;;;4978894;28;93713;-73
2023/12/04 05:33:14;;;;;;;5.83;3.23;;;;;;;;;;4981014;28;95250;-73
2023/12/04 05:35:42;;;;;;;4.37;3.03;;;;;;;;;;4981431;28;94867;-73
2023/12/04 05:38:11;;;;;;;6.63;3.80;;;;;;;;;;4982038;28;92076;-73
2023/12/04 05:40:39;;;;;;;9.17;3.80;;;;;;;;;;4986236;28;92483;-73
2023/12/04 05:43:08;;;;;;;8.63;4.03;;;;;;;;;;4986303;28;93658;-73
2023/12/04 05:45:36;;;;;;;6.00;3.27;;;;;;;;;;4992892;28;94036;-74
2023/12/04 05:48:05;;;;;;;4.63;3.40;;;;;;;;;;4991580;28;92083;-73
2023/12/04 05:50:35;;;;;;;4.77;3.40;;;;;;;;;;4984479;28;91240;-73
2023/12/04 05:53:03;;;;;;;7.47;4.50;;;;;;;;;;4992087;28;94146;-73
2023/12/04 05:55:32;;;;;;;3.33;2.97;;;;;;;;;;4983988;28;93735;-74
2023/12/04 05:58:01;;;;;;;4.13;3.20;;;;;;;;;;4991678;28;93034;-74
2023/12/04 06:00:30;;;;;;;5.63;4.07;;;;;;;;;;4978675;28;92407;-73
2023/12/04 06:02:58;;;;;;;5.10;3.17;;;;;;;;;;4987882;28;94112;-73
2023/12/04 06:05:28;;;;;;;4.70;3.43;;;;;;;;;;4991723;28;94031;-73
2023/12/04 06:07:59;;;;;;;5.47;3.70;;;;;;;;;;4984965;28;92039;-73
2023/12/04 06:10:28;;;;;;;3.97;3.33;;;;;;;;;;4987888;28;92054;-74
2023/12/04 06:12:56;;;;;;;6.30;4.43;;;;;;;;;;4989016;28;94020;-74
2023/12/04 06:15:25;;;;;;;5.73;3.77;;;;;;;;;;4972526;28;94046;-74
2023/12/04 06:17:54;;;;;;;5.97;3.33;;;;;;;;;;4979979;28;93319;-73
2023/12/04 06:20:22;;;;;;;4.37;3.40;;;;;;;;;;4980172;28;93998;-70
2023/12/04 06:22:51;;;;;;;4.53;3.67;;;;;;;;;;4982298;28;98049;-70
2023/12/04 06:25:21;;;;;;;3.73;2.77;;;;;;;;;;4984622;28;94814;-70
2023/12/04 06:27:51;;;;;;;4.57;3.20;;;;;;;;;;4989012;28;91839;-71
2023/12/04 06:30:20;;;;;;;3.87;2.73;;;;;;;;;;4983781;28;92124;-73
2023/12/04 06:32:49;;;;;;;6.30;3.30;;;;;;;;;;4968285;28;94126;-72
2023/12/04 06:35:18;;;;;;;3.90;2.80;;;;;;;;;;4966793;28;94099;-73
2023/12/04 06:37:48;;;;;;;3.37;2.90;;;;;;;;;;4963244;28;92051;-72
2023/12/04 06:40:17;;;;;;;6.70;3.67;;;;;;;;;;4968243;28;91375;-73
2023/12/04 06:42:47;;;;;;;3.27;2.37;;;;;;;;;;4965175;28;94258;-73
2023/12/04 06:45:16;;;;;;;5.87;2.57;;;;;;;;;;4967004;28;94006;-72
2023/12/04 06:47:45;;;;;;;4.50;2.73;;;;;;;;;;4965548;28;93062;-71
2023/12/04 06:50:13;;;;;;;3.70;2.63;;;;;;;;;;4960691;28;92102;-72
2023/12/04 06:52:42;;;;;;;4.17;2.67;;;;;;;;;;4966587;28;94524;-72
2023/12/04 06:55:11;;;;;;;3.33;2.80;;;;;;;;;;4960200;28;93795;-72
2023/12/04 06:57:39;;;;;;;3.57;2.17;;;;;;;;;;4971121;28;92167;-72
2023/12/04 07:00:12;;;;;;;3.53;2.33;;;;;;;;;;4968297;28;92020;-72
2023/12/04 07:02:50;;;;;;;3.90;2.50;;;;;;;;;;4953888;28;94256;-73
2023/12/04 07:05:18;;;;;;;2.60;2.20;;;;;;;;;;4962649;28;92498;-73
2023/12/04 07:07:47;;;;;;;3.97;2.40;;;;;;;;;;4967104;28;92944;-73
2023/12/04 07:10:16;;;;;;;3.30;2.13;;;;;;;;;;4961546;28;92286;-74
2023/12/04 07:12:45;;;;;;;2.70;2.33;;;;;;;;;;4965548;28;95158;-73
2023/12/04 07:15:15;;;;;;;4.47;2.70;;;;;;;;;;4954487;28;94758;-73
2023/12/04 07:17:44;;;;;;;5.30;1.90;;;;;;;;;;4965679;28;92096;-73
2023/12/04 07:23:09;;;;;;;2.40;1.93;;;;;;;;;;4968299;28;94276;-69
2023/12/04 07:25:38;;;;;;;2.10;1.90;;;;;;;;;;4966792;28;93638;-69
2023/12/04 07:28:06;;;;;;;3.23;2.03;;;;;;;;;;4968480;28;92059;-68
2023/12/04 07:30:36;;;;;;;3.50;2.13;;;;;;;;;;4967370;28;91319;-68
2023/12/04 07:33:05;;;;;;;2.30;2.07;;;;;;;;;;4977139;28;94185;-70
2023/12/04 07:35:35;;;;;;;2.93;2.07;;;;;;;;;;4970080;28;96468;-72
2023/12/04 07:38:04;;;;;;;4.67;2.70;;;;;;;;;;4981733;28;94383;-71
2023/12/04 07:40:33;;;;;;;4.47;2.47;;;;;;;;;;4979207;28;92205;-72
2023/12/04 07:43:02;;;;;;;3.23;2.00;;;;;;;;;;4983438;28;94410;-72
2023/12/04 07:45:30;;;;;;;6.00;3.23;;;;;;;;;;4982095;28;93754;-73
2023/12/04 07:48:00;;;;;;;4.63;2.40;;;;;;;;;;4990510;28;92100;-73
2023/12/04 07:50:29;;;;;;;4.23;2.20;;;;;;;;;;4983656;28;92126;-72
2023/12/04 07:52:57;;;;;;;4.90;2.60;;;;;;;;;;4981216;28;94051;-73
2023/12/04 07:55:27;;;;;;;3.50;2.17;;;;;;;;;;4978925;28;93759;-71
2023/12/04 07:57:56;;;;;;;4.13;2.67;;;;;;;;;;4990193;28;91889;-70
2023/12/04 08:00:26;;;;;;;4.70;2.53;;;;;;;;;;4979300;28;92158;-73
2023/12/04 08:02:54;;;;;;;2.90;2.10;;;;;;;;;;4986650;28;95187;-71
2023/12/04 08:05:27;;;;;;;3.60;2.90;;;;;;;;;;4977970;28;94784;-73
2023/12/04 08:07:55;;;;;;;3.70;2.20;;;;;;;;;;4985991;28;92077;-73
2023/12/04 08:10:24;;;;;;;3.63;2.30;;;;;;;;;;4986797;28;92079;-73
2023/12/04 08:12:53;;;;;;;2.60;2.40;;;;;;;;;;4988452;28;94251;-70
2023/12/04 08:15:21;;;;;;;3.73;2.40;;;;;;;;;;4985584;28;93879;-70
2023/12/04 08:17:50;;;;;;;3.10;2.33;;;;;;;;;;4991135;28;92113;-70
2023/12/04 08:20:22;;;;;;;5.30;2.77;;;;;;;;;;4988160;28;91341;-70
2023/12/04 08:23:05;;;;;;;3.00;2.10;;;;;;;;;;4989429;28;92044;-69
2023/12/04 08:25:34;;;;;;;3.17;2.53;;;;;;;;;;4987274;28;93873;-68
2023/12/04 08:28:03;;;;;;;2.00;1.77;;;;;;;;;;4990042;28;93040;-68
2023/12/04 08:30:32;;;;;;;2.33;1.80;;;;;;;;;;4986603;28;94430;-70
2023/12/04 08:33:02;;;;;;;3.17;2.20;;;;;;;;;;4984966;28;93710;-68
2023/12/04 08:35:31;;;;;;;3.83;2.03;;;;;;;;;;4978841;28;93865;-68
2023/12/04 08:37:59;;;;;;;3.13;2.17;;;;;;;;;;4982577;28;92049;-70
2023/12/04 08:40:29;;;;;;;3.23;2.37;;;;;;;;;;4971983;28;92094;-71
2023/12/04 08:42:58;;;;;;;3.60;1.83;;;;;;;;;;4981914;28;94203;-71
2023/12/04 08:45:26;;;;;;;2.93;2.40;;;;;;;;;;4983686;28;94036;-72
2023/12/04 08:47:55;;;;;;;5.83;2.03;;;;;;;;;;4984163;28;92030;-66
2023/12/04 08:50:25;;;;;;;2.27;1.90;;;;;;;;;;4985021;28;92097;-67
2023/12/04 08:52:53;;;;;;;4.53;2.10;;;;;;;;;;4980479;28;95197;-66
2023/12/04 08:55:22;;;;;;;2.87;2.37;;;;;;;;;;4987475;28;94865;-66
2023/12/04 08:57:52;;;;;;;2.90;1.80;;;;;;;;;;4985872;28;92146;-66
2023/12/04 09:00:20;;;;;;;3.10;1.93;;;;;;;;;;4981782;28;92215;-66
2023/12/04 09:02:49;;;;;;;3.27;1.57;;;;;;;;;;4985749;28;93992;-67
2023/12/04 09:05:32;;;;;;;1.90;1.43;;;;;;;;;;4978699;28;93318;-66
2023/12/04 09:08:01;;;;;;;1.93;1.73;;;;;;;;;;4983460;28;92313;-66
2023/12/04 09:10:49;;;;;;;2.80;1.87;;;;;;;;;;4982064;28;91255;-66
2023/12/04 09:13:39;;;;;;;2.67;2.23;;;;;;;;;;4983633;28;96215;-67
2023/12/04 09:16:09;;;;;;;2.60;1.63;;;;;;;;;;4982619;28;93718;-66
2023/12/04 09:18:37;;;;;;;2.13;1.63;;;;;;;;;;4986815;28;93038;-66
2023/12/04 09:21:08;;;;;;;2.87;1.80;;;;;;;;;;4979723;28;92202;-66
2023/12/04 09:23:36;;;;;;;1.73;1.53;;;;;;;;;;4972860;28;94230;-66
2023/12/04 09:26:05;;;;;;;2.33;2.07;;;;;;;;;;4983635;28;95438;-71
2023/12/04 09:28:34;;;;;;;3.67;1.50;;;;;;;;;;4977381;28;92134;-70
2023/12/04 09:31:04;;;;;;;3.33;1.60;;;;;;;;;;4983203;28;92104;-68
2023/12/04 09:33:32;;;;;;;2.43;1.83;;;;;;;;;;4980594;28;94081;-67
2023/12/04 09:36:01;;;;;;;1.77;1.67;;;;;;;;;;4989173;28;93827;-67
2023/12/04 09:38:30;;;;;;;1.67;1.57;;;;;;;;;;4984893;28;92018;-70
2023/12/04 09:41:01;;;;;;;2.20;1.53;;;;;;;;;;4984636;28;92086;-69
2023/12/04 09:43:30;;;;;;;1.30;1.20;;;;;;;;;;4983998;28;95061;-69
2023/12/04 09:45:58;;;;;;;2.23;1.60;;;;;;;;;;4980503;28;94849;-71
2023/12/04 09:48:29;;;;;;;3.70;1.70;;;;;;;;;;4987503;28;91905;-71
2023/12/04 09:50:58;;;;;;;3.47;2.27;;;;;;;;;;4982332;28;92422;-70
2023/12/04 09:53:28;;;;;;;2.23;2.00;;;;;;;;;;4980895;28;94160;-70
2023/12/04 09:55:57;;;;;;;2.60;2.40;;;;;;;;;;4987139;28;93935;-70
2023/12/04 09:58:25;;;;;;;4.40;1.90;;;;;;;;;;4984605;28;92020;-69
2023/12/04 10:00:54;;;;;;;1.30;1.20;;;;;;;;;;4979115;28;91353;-69
2023/12/04 10:03:23;;;;;;;2.07;1.50;;;;;;;;;;4987660;28;94198;-69
2023/12/04 10:05:53;;;;;;;4.10;2.13;;;;;;;;;;4988963;28;94006;-70
2023/12/04 10:08:22;;;;;;;5.57;1.80;;;;;;;;;;4983012;28;93104;-72
2023/12/04 10:10:51;;;;;;;3.33;2.23;;;;;;;;;;4986041;28;92017;-70
2023/12/04 10:13:19;;;;;;;2.43;2.23;;;;;;;;;;4988375;28;94245;-70
2023/12/04 10:16:08;;;;;;;2.77;1.90;;;;;;;;;;4990595;28;96508;-70
2023/12/04 10:18:37;;;;;;;2.03;1.63;;;;;;;;;;4990283;28;91801;-70
2023/12/04 10:21:07;;;;;;;2.87;2.43;;;;;;;;;;4983638;28;92076;-69
2023/12/04 10:23:46;;;;;;;2.63;2.20;;;;;;;;;;4987858;28;94158;-69
2023/12/04 10:26:16;;;;;;;2.23;1.80;;;;;;;;;;4986493;28;93846;-71
2023/12/04 10:28:49;;;;;;;3.47;2.13;;;;;;;;;;4982052;28;93784;-68
2023/12/04 10:31:19;;;;;;;3.27;1.83;;;;;;;;;;4991675;28;91966;-70
2023/12/04 10:33:49;;;;;;;2.23;1.90;;;;;;;;;;4986344;28;94945;-71
2023/12/04 10:36:20;;;;;;;2.07;1.80;;;;;;;;;;4987393;28;95955;-68
2023/12/04 10:38:48;;;;;;;2.83;1.90;;;;;;;;;;4980319;28;92126;-68
2023/12/04 10:41:17;;;;;;;2.83;2.13;;;;;;;;;;4984617;28;92139;-69
2023/12/04 10:43:48;;;;;;;2.63;1.83;;;;;;;;;;4987373;28;92923;-69
2023/12/04 10:46:29;;;;;;;2.23;1.47;;;;;;;;;;4984184;28;93707;-70
2023/12/04 10:48:58;;;;;;;2.17;1.97;;;;;;;;;;4982249;28;91942;-70
2023/12/04 10:51:30;;;;;;;2.10;1.90;;;;;;;;;;4970668;28;91457;-69
2023/12/04 10:53:59;;;;;;;2.33;2.07;;;;;;;;;;4978492;28;94205;-69
2023/12/04 10:56:28;;;;;;;1.70;1.60;;;;;;;;;;4983634;28;92875;-69
2023/12/04 10:58:57;;;;;;;2.47;1.97;;;;;;;;;;4975989;28;92820;-71
2023/12/04 11:01:26;;;;;;;2.20;2.00;;;;;;;;;;4969691;28;93377;-70
2023/12/04 11:03:55;;;;;;;2.60;1.57;;;;;;;;;;4974962;28;94216;-71
2023/12/04 11:06:23;;;;;;;3.07;1.47;;;;;;;;;;4975536;28;93754;-69
2023/12/04 11:08:53;;;;;;;1.97;1.67;;;;;;;;;;4986716;28;92055;-70
2023/12/04 11:11:24;;;;;;;4.90;2.07;;;;;;;;;;4979382;28;92517;-67
2023/12/04 11:13:52;;;;;;;2.03;1.63;;;;;;;;;;4980728;28;94062;-71
2023/12/04 11:16:22;;;;;;;4.23;2.43;;;;;;;;;;4985302;28;93793;-70
2023/12/04 11:18:53;;;;;;;3.10;1.70;;;;;;;;;;4974717;28;93437;-69
2023/12/04 11:21:21;;;;;;;3.33;1.97;;;;;;;;;;4983263;28;92036;-76
2023/12/04 11:23:50;;;;;;;3.13;1.97;;;;;;;;;;4980794;28;95177;-75
2023/12/04 11:26:20;;;;;;;2.50;1.83;;;;;;;;;;4985334;28;93589;-74
2023/12/04 11:28:48;;;;;;;1.80;1.50;;;;;;;;;;4977174;28;92512;-76
2023/12/04 11:31:17;;;;;;;5.23;2.60;;;;;;;;;;4977031;28;92323;-77
2023/12/04 11:33:45;;;;;;;3.50;1.60;;;;;;;;;;4987911;28;94091;-76
2023/12/04 11:36:14;;;;;;;2.83;2.07;;;;;;;;;;4971941;28;92507;-76
2023/12/04 11:38:45;;;;;;;2.93;1.90;;;;;;;;;;4976001;28;91885;-75
2023/12/04 11:41:17;;;;;;;2.20;1.97;;;;;;;;;;4985357;28;91418;-76
2023/12/04 11:43:53;;;;;;;2.30;2.10;;;;;;;;;;5000378;28;94104;-75
2023/12/04 11:46:22;;;;;;;2.47;1.97;;;;;;;;;;4995578;28;92749;-75
2023/12/04 11:48:51;;;;;;;1.83;1.60;;;;;;;;;;5004615;28;92607;-75
2023/12/04 11:51:35;;;;;;;3.57;2.47;;;;;;;;;;5012858;28;91324;-75
2023/12/04 11:54:04;;;;;;;4.07;2.87;;;;;;;;;;5006329;28;93003;-75
2023/12/04 11:56:33;;;;;;;3.67;2.63;;;;;;;;;;4989270;28;92443;-75
2023/12/04 11:59:05;;;;;;;3.33;2.60;;;;;;;;;;4979957;28;92006;-75
2023/12/04 12:01:35;;;;;;;3.97;2.70;;;;;;;;;;4978456;28;92476;-74
2023/12/04 12:04:05;;;;;;;4.47;2.80;;;;;;;;;;4982756;28;94266;-76
2023/12/04 12:06:34;;;;;;;14.13;5.90;;;;;;;;;;4984379;28;93793;-75
2023/12/04 12:09:04;;;;;;;32.60;14.47;;;;;;;;;;4983586;28;92040;-77
2023/12/04 12:11:33;;;;;;;42.40;19.33;;;;;;;;;;4985028;28;96167;-76
2023/12/04 12:14:02;;;;;;;40.70;19.33;;;;;;;;;;4986483;28;95159;-71
2023/12/04 12:16:33;;;;;;;28.10;18.10;;;;;;;;;;4979885;28;94939;-71
2023/12/04 12:19:03;;;;;;;28.30;16.17;;;;;;;;;;4985739;28;92076;-70
2023/12/04 12:21:31;;;;;;;30.97;14.57;;;;;;;;;;4986898;28;92131;-74
2023/12/04 12:24:00;;;;;;;22.10;14.70;;;;;;;;;;4967376;28;94291;-73
2023/12/04 12:26:30;;;;;;;21.13;12.27;;;;;;;;;;4982448;28;93930;-74
2023/12/04 12:28:59;;;;;;;16.97;11.97;;;;;;;;;;4981881;28;91996;-75
2023/12/04 12:31:27;;;;;;;20.53;11.80;;;;;;;;;;4984724;28;91532;-75
2023/12/04 12:33:58;;;;;;;20.20;11.60;;;;;;;;;;4993775;28;94273;-75
2023/12/04 12:36:27;;;;;;;19.60;10.33;;;;;;;;;;4991087;28;93892;-74
2023/12/04 12:38:56;;;;;;;15.50;9.17;;;;;;;;;;4978183;28;92745;-75
2023/12/04 12:41:26;;;;;;;17.67;9.27;;;;;;;;;;4989510;28;92187;-75
2023/12/04 12:43:55;;;;;;;14.83;8.23;;;;;;;;;;4974397;28;94041;-75
2023/12/04 12:46:25;;;;;;;14.37;8.13;;;;;;;;;;4962855;28;93908;-74
2023/12/04 12:48:54;;;;;;;13.30;7.90;;;;;;;;;;4983076;28;92067;-75
2023/12/04 12:51:25;;;;;;;19.03;8.50;;;;;;;;;;4997592;28;91935;-76
2023/12/04 12:53:53;;;;;;;9.47;6.53;;;;;;;;;;4998007;28;94140;-76
2023/12/04 12:56:22;;;;;;;9.57;5.67;;;;;;;;;;4998473;28;93747;-74
2023/12/04 12:58:51;;;;;;;26.47;15.97;;;;;;;;;;4998590;28;92004;-74
2023/12/04 13:01:20;;;;;;;25.53;12.77;;;;;;;;;;4976784;28;92200;-77
2023/12/04 13:03:49;;;;;;;21.00;13.20;;;;;;;;;;4976933;28;95147;-75
2023/12/04 13:06:18;;;;;;;25.80;10.77;;;;;;;;;;4977993;28;94937;-76
2023/12/04 13:08:48;;;;;;;23.20;10.47;;;;;;;;;;4977765;28;92052;-76
2023/12/04 13:11:22;;;;;;;14.80;9.10;;;;;;;;;;4977913;28;92076;-75
2023/12/04 13:13:52;;;;;;;10.40;8.37;;;;;;;;;;4970413;28;92876;-76
2023/12/04 13:16:22;;;;;;;13.40;8.03;;;;;;;;;;4974535;28;92758;-75
2023/12/04 13:18:51;;;;;;;14.17;6.63;;;;;;;;;;4969106;28;92162;-73
2023/12/04 13:21:19;;;;;;;15.30;7.50;;;;;;;;;;4958647;28;91345;-75
2023/12/04 13:23:49;;;;;;;12.10;8.23;;;;;;;;;;4959917;28;94163;-74
2023/12/04 13:26:18;;;;;;;24.07;9.47;;;;;;;;;;4966907;28;93956;-75
2023/12/04 13:28:47;;;;;;;13.93;6.27;;;;;;;;;;4976888;28;92947;-74
2023/12/04 13:31:15;;;;;;;10.50;6.37;;;;;;;;;;4976431;28;92154;-73
2023/12/04 13:33:46;;;;;;;6.80;4.90;;;;;;;;;;4976317;28;94180;-73
2023/12/04 13:36:14;;;;;;;9.20;5.87;;;;;;;;;;4974871;28;94101;-73
2023/12/04 13:38:43;;;;;;;7.67;5.37;;;;;;;;;;4970221;28;92040;-73
2023/12/04 13:43:49;;;;;;;5.70;4.47;;;;;;;;;;4984665;28;92218;-73
2023/12/04 13:44:07;;;;;;;9.60;5.67;;;;;;;;;;4975292;28;94002;-73
2023/12/04 13:46:36;;;;;;;8.67;5.20;;;;;;;;;;4979857;28;93886;-73
2023/12/04 13:49:04;;;;;;;7.73;4.07;;;;;;;;;;4997334;28;91977;-73
2023/12/04 13:51:34;;;;;;;8.63;4.37;;;;;;;;;;4980774;28;92058;-73
2023/12/04 13:54:11;;;;;;;9.60;4.00;;;;;;;;;;4975823;28;94371;-73
2023/12/04 13:56:51;;;;;;;7.33;3.93;;;;;;;;;;4974920;28;94712;-73
2023/12/04 13:59:20;;;;;;;6.23;4.13;;;;;;;;;;4969382;28;93616;-77
2023/12/04 14:01:49;;;;;;;5.40;3.23;;;;;;;;;;4967820;28;92243;-75
2023/12/04 14:04:18;;;;;;;7.90;3.67;;;;;;;;;;4975315;28;94218;-74
2023/12/04 14:06:48;;;;;;;6.47;4.03;;;;;;;;;;4981815;28;93744;-75
2023/12/04 14:09:16;;;;;;;4.93;3.37;;;;;;;;;;4996935;28;92001;-74
2023/12/04 14:11:47;;;;;;;5.70;3.27;;;;;;;;;;4980980;28;91283;-75
2023/12/04 14:14:16;;;;;;;7.10;3.37;;;;;;;;;;4995825;28;94242;-75
2023/12/04 14:16:46;;;;;;;3.87;2.50;;;;;;;;;;4982601;28;92941;-74
2023/12/04 14:19:17;;;;;;;4.83;3.37;;;;;;;;;;4980514;28;92850;-74
2023/12/04 14:21:48;;;;;;;6.10;3.10;;;;;;;;;;4980430;28;91976;-74
2023/12/04 14:24:16;;;;;;;8.33;3.50;;;;;;;;;;4971866;28;94967;-75
2023/12/04 14:26:46;;;;;;;5.10;3.20;;;;;;;;;;4972332;28;93758;-74
2023/12/04 14:29:15;;;;;;;4.77;2.80;;;;;;;;;;4970369;28;92162;-74
2023/12/04 14:31:43;;;;;;;5.23;3.30;;;;;;;;;;4973812;28;92217;-74
2023/12/04 14:34:12;;;;;;;4.13;3.23;;;;;;;;;;4972411;28;94195;-75
2023/12/04 14:36:41;;;;;;;5.93;3.60;;;;;;;;;;4985374;28;93792;-74
2023/12/04 14:39:12;;;;;;;4.00;3.00;;;;;;;;;;4979417;28;92131;-75
2023/12/04 14:41:40;;;;;;;6.70;3.37;;;;;;;;;;4979352;28;92367;-74
2023/12/04 14:44:11;;;;;;;5.53;2.83;;;;;;;;;;4975907;28;95196;-73
2023/12/04 14:46:39;;;;;;;6.37;2.80;;;;;;;;;;4973901;28;94739;-73
2023/12/04 14:49:08;;;;;;;5.77;3.10;;;;;;;;;;4977707;28;91778;-73
2023/12/04 14:51:37;;;;;;;5.73;2.97;;;;;;;;;;4992258;28;92079;-72
2023/12/04 14:54:16;;;;;;;3.50;2.40;;;;;;;;;;4981101;28;94198;-73
2023/12/04 15:05:39;;;;;;;5.90;2.80;;;;;;;;;;4978792;28;96949;-70